createdAt,value
2019-02-05T00:00:47.568Z,43.74
2019-02-05T00:03:17.596Z,43.79
2019-02-05T00:05:44.844Z,43.98
2019-02-05T00:08:12.123Z,43.92
2019-02-05T00:10:39.356Z,43.79
2019-02-05T00:13:06.739Z,43.86
2019-02-05T00:15:34.718Z,43.96
2019-02-05T00:18:02.062Z,43.97
2019-02-05T00:20:29.265Z,43.92
2019-02-05T00:22:56.415Z,43.94
2019-02-05T00:25:23.675Z,44.14
2019-02-05T00:27:50.885Z,44.83
2019-02-05T00:30:18.080Z,44.83
2019-02-05T00:32:45.673Z,44.85
2019-02-05T00:35:12.879Z,44.68
2019-02-05T00:37:40.173Z,44.78
2019-02-05T00:40:07.683Z,44.54
2019-02-05T00:42:34.889Z,44.63
2019-02-05T00:45:02.086Z,44.79
2019-02-05T00:47:32.167Z,44.52
2019-02-05T00:49:58.386Z,44.83
2019-02-05T00:52:25.598Z,44.89
2019-02-05T00:54:52.751Z,44.70
2019-02-05T00:57:20.043Z,44.93
2019-02-05T00:59:47.194Z,44.91
2019-02-05T01:02:14.581Z,45.43
2019-02-05T01:04:41.785Z,45.43
2019-02-05T01:07:09.152Z,45.43
2019-02-05T01:09:36.338Z,46.06
2019-02-05T01:12:03.577Z,46.02
2019-02-05T01:14:30.714Z,45.81
2019-02-05T01:16:57.888Z,45.86
2019-02-05T01:19:25.105Z,45.89
2019-02-05T01:21:52.330Z,45.87
2019-02-05T01:24:20.112Z,45.85
2019-02-05T01:26:47.331Z,45.76
2019-02-05T01:29:14.488Z,46.14
2019-02-05T01:31:41.809Z,46.22
2019-02-05T01:34:08.986Z,46.39
2019-02-05T01:36:36.214Z,46.01
2019-02-05T01:39:05.621Z,46.03
2019-02-05T01:41:33.255Z,46.54
2019-02-05T01:44:00.442Z,46.31
2019-02-05T01:46:27.634Z,46.14
2019-02-05T01:48:54.838Z,46.16
2019-02-05T01:51:22.059Z,46.26
2019-02-05T01:53:49.372Z,46.17
2019-02-05T01:56:16.578Z,46.13
2019-02-05T01:58:44.392Z,46.42
2019-02-05T02:01:12.003Z,46.23
2019-02-05T02:03:39.143Z,46.29
2019-02-05T02:06:06.381Z,46.09
2019-02-05T02:08:33.644Z,46.23
2019-02-05T02:11:00.833Z,46.05
2019-02-05T02:13:28.034Z,45.90
2019-02-05T02:15:55.226Z,45.73
2019-02-05T02:18:22.512Z,46.03
2019-02-05T02:20:49.718Z,45.91
2019-02-05T02:23:16.911Z,46.13
2019-02-05T02:25:44.119Z,47.54
2019-02-05T02:28:11.306Z,47.71
2019-02-05T02:30:38.753Z,47.72
2019-02-05T02:33:06.354Z,47.91
2019-02-05T02:35:33.917Z,47.83
2019-02-05T02:38:01.108Z,47.62
2019-02-05T02:40:28.442Z,47.62
2019-02-05T02:42:55.587Z,47.71
2019-02-05T02:45:22.799Z,48.02
2019-02-05T02:47:50.127Z,47.37
2019-02-05T02:50:17.320Z,47.74
2019-02-05T02:52:44.930Z,47.99
2019-02-05T02:55:12.180Z,47.89
2019-02-05T02:57:39.408Z,47.54
2019-02-05T03:00:09.252Z,47.39
2019-02-05T03:02:36.553Z,47.44
2019-02-05T03:05:05.303Z,48.14
2019-02-05T03:07:32.579Z,47.62
2019-02-05T03:09:59.825Z,48.29
2019-02-05T03:12:27.118Z,47.98
2019-02-05T03:14:54.367Z,47.76
2019-02-05T03:17:21.551Z,47.38
2019-02-05T03:19:48.737Z,47.50
2019-02-05T03:22:15.922Z,47.50
2019-02-05T03:24:43.136Z,47.24
2019-02-05T03:27:17.810Z,46.91
2019-02-05T03:29:39.396Z,46.95
2019-02-05T03:32:07.038Z,47.06
2019-02-05T03:34:34.245Z,47.05
2019-02-05T03:37:01.457Z,46.75
2019-02-05T03:39:28.694Z,46.88
2019-02-05T03:41:56.022Z,46.88
2019-02-05T03:44:23.236Z,47.11
2019-02-05T03:46:50.495Z,47.11
2019-02-05T03:49:17.679Z,47.33
2019-02-05T03:52:03.164Z,47.44
2019-02-05T03:55:11.486Z,48.14
2019-02-05T03:58:01.996Z,48.21
2019-02-05T04:01:19.564Z,48.28
2019-02-05T04:04:53.030Z,48.42
2019-02-05T04:07:56.251Z,48.26
2019-02-05T04:11:17.148Z,48.12
2019-02-05T04:14:30.524Z,48.14
2019-02-05T04:18:00.758Z,48.12
2019-02-05T04:21:11.850Z,47.43
2019-02-05T04:23:53.304Z,47.43
2019-02-05T04:27:05.861Z,48.62
2019-02-05T04:30:11.968Z,49.13
2019-02-05T04:32:46.050Z,49.17
2019-02-05T04:35:48.451Z,49.14
2019-02-05T04:39:04.373Z,48.79
2019-02-05T04:41:56.324Z,48.61
2019-02-05T04:45:17.262Z,48.61
2019-02-05T04:48:11.213Z,48.56
2019-02-05T04:51:20.933Z,47.95
2019-02-05T04:54:24.594Z,47.77
2019-02-05T04:57:25.153Z,47.41
2019-02-05T05:00:46.902Z,47.09
2019-02-05T05:03:33.903Z,47.38
2019-02-05T05:06:17.898Z,47.28
2019-02-05T05:09:17.725Z,47.67
2019-02-05T05:11:44.902Z,47.13
2019-02-05T05:14:12.060Z,46.74
2019-02-05T05:16:39.340Z,46.92
2019-02-05T05:19:06.541Z,46.89
2019-02-05T05:21:34.150Z,46.73
2019-02-05T05:24:01.577Z,46.56
2019-02-05T05:26:28.840Z,47.14
2019-02-05T05:28:55.988Z,46.75
2019-02-05T05:31:23.226Z,46.31
2019-02-05T05:33:50.413Z,46.01
2019-02-05T05:36:17.606Z,46.72
2019-02-05T05:38:45.826Z,46.40
2019-02-05T05:41:13.507Z,46.48
2019-02-05T05:43:41.605Z,46.55
2019-02-05T05:46:09.028Z,45.94
2019-02-05T05:48:36.375Z,45.67
2019-02-05T05:51:03.779Z,45.67
2019-02-05T05:53:31.180Z,45.58
2019-02-05T05:55:58.494Z,45.51
2019-02-05T05:58:26.073Z,45.44
2019-02-05T06:00:53.674Z,45.36
2019-02-05T06:03:20.871Z,45.25
2019-02-05T06:05:48.045Z,45.18
2019-02-05T06:08:15.263Z,45.10
2019-02-05T06:10:42.484Z,45.03
2019-02-05T06:13:09.639Z,45.03
2019-02-05T06:15:36.903Z,44.90
2019-02-05T06:18:04.256Z,44.96
2019-02-05T06:20:32.634Z,44.96
2019-02-05T06:22:59.897Z,44.94
2019-02-05T06:25:27.129Z,44.93
2019-02-05T06:27:54.323Z,45.23
2019-02-05T06:30:21.502Z,45.28
2019-02-05T06:32:48.821Z,45.29
2019-02-05T06:35:16.044Z,45.16
2019-02-05T06:37:43.278Z,45.22
2019-02-05T06:40:11.090Z,45.24
2019-02-05T06:42:38.334Z,45.27
2019-02-05T06:45:06.885Z,45.47
2019-02-05T06:47:34.781Z,46.50
2019-02-05T06:50:02.020Z,46.65
2019-02-05T06:52:29.412Z,46.69
2019-02-05T06:54:56.758Z,46.43
2019-02-05T06:57:24.526Z,46.64
2019-02-05T06:59:51.997Z,46.62
2019-02-05T07:02:19.426Z,46.74
2019-02-05T07:04:46.681Z,46.69
2019-02-05T07:07:13.891Z,46.82
2019-02-05T07:09:41.100Z,46.99
2019-02-05T07:12:08.301Z,46.60
2019-02-05T07:14:35.524Z,46.86
2019-02-05T07:17:02.931Z,46.79
2019-02-05T07:19:30.118Z,46.32
2019-02-05T07:21:57.591Z,46.30
2019-02-05T07:24:24.822Z,46.21
2019-02-05T07:26:52.189Z,46.18
2019-02-05T07:29:19.411Z,46.06
2019-02-05T07:31:46.730Z,46.03
2019-02-05T07:34:16.172Z,45.96
2019-02-05T07:36:43.818Z,45.87
2019-02-05T07:39:11.105Z,45.71
2019-02-05T07:41:38.377Z,45.71
2019-02-05T07:44:05.625Z,45.59
2019-02-05T07:46:32.842Z,45.64
2019-02-05T07:49:00.158Z,45.61
2019-02-05T07:51:27.363Z,45.55
2019-02-05T07:53:54.558Z,45.50
2019-02-05T07:56:21.807Z,45.43
2019-02-05T07:58:49.551Z,45.33
2019-02-05T08:01:17.728Z,45.23
2019-02-05T08:03:45.068Z,45.10
2019-02-05T08:06:12.282Z,44.95
2019-02-05T08:08:39.488Z,45.07
2019-02-05T08:11:06.716Z,45.01
2019-02-05T08:13:33.917Z,44.97
2019-02-05T08:16:01.262Z,44.92
2019-02-05T08:18:28.580Z,44.79
2019-02-05T08:20:55.813Z,44.78
2019-02-05T08:23:23.407Z,44.74
2019-02-05T08:25:50.717Z,44.76
2019-02-05T08:28:17.934Z,44.67
2019-02-05T08:30:46.919Z,44.51
2019-02-05T08:33:14.261Z,44.51
2019-02-05T08:35:41.623Z,44.43
2019-02-05T08:38:08.870Z,44.32
2019-02-05T08:40:36.109Z,44.34
2019-02-05T08:43:04.198Z,44.45
2019-02-05T08:45:31.482Z,44.37
2019-02-05T08:47:58.726Z,44.39
2019-02-05T08:50:27.411Z,44.32
2019-02-05T08:52:54.878Z,44.29
2019-02-05T08:55:22.085Z,44.34
2019-02-05T08:57:50.227Z,44.22
2019-02-05T09:00:19.810Z,44.22
2019-02-05T09:02:47.357Z,44.13
2019-02-05T09:05:15.083Z,44.20
2019-02-05T09:07:42.374Z,44.21
2019-02-05T09:10:11.574Z,44.20
2019-02-05T09:12:38.787Z,44.28
2019-02-05T09:15:07.515Z,44.26
2019-02-05T09:17:34.758Z,44.15
2019-02-05T09:20:01.969Z,44.14
2019-02-05T09:22:29.344Z,44.10
2019-02-05T09:24:56.599Z,43.99
2019-02-05T09:27:24.127Z,43.99
2019-02-05T09:29:51.522Z,43.93
2019-02-05T09:32:18.690Z,43.91
2019-02-05T09:34:45.899Z,43.91
2019-02-05T09:37:13.263Z,43.88
2019-02-05T09:39:40.533Z,43.92
2019-02-05T09:42:08.027Z,43.96
2019-02-05T09:44:35.306Z,43.85
2019-02-05T09:47:02.535Z,43.83
2019-02-05T09:49:29.866Z,43.79
2019-02-05T09:51:57.261Z,43.77
2019-02-05T09:54:24.501Z,43.73
2019-02-05T09:56:51.868Z,43.60
2019-02-05T09:59:19.118Z,43.63
2019-02-05T10:01:46.710Z,43.57
2019-02-05T10:04:13.962Z,43.52
2019-02-05T10:06:41.178Z,43.47
2019-02-05T10:09:08.516Z,43.51
2019-02-05T10:11:35.719Z,43.58
2019-02-05T10:14:02.887Z,43.51
2019-02-05T10:16:30.186Z,43.38
2019-02-05T10:18:57.427Z,43.33
2019-02-05T10:21:24.998Z,43.30
2019-02-05T10:23:52.370Z,43.22
2019-02-05T10:26:19.598Z,43.18
2019-02-05T10:28:46.811Z,43.16
2019-02-05T10:31:14.039Z,43.13
2019-02-05T10:33:41.245Z,42.94
2019-02-05T10:36:08.454Z,42.99
2019-02-05T10:38:35.656Z,42.99
2019-02-05T10:41:04.040Z,42.95
2019-02-05T10:43:31.294Z,43.01
2019-02-05T10:45:58.485Z,42.98
2019-02-05T10:48:25.730Z,42.87
2019-02-05T10:50:53.111Z,42.82
2019-02-05T10:53:20.425Z,42.82
2019-02-05T10:55:47.711Z,42.79
2019-02-05T10:58:14.963Z,42.79
2019-02-05T11:00:42.207Z,42.69
2019-02-05T11:03:09.409Z,42.72
2019-02-05T11:05:36.611Z,42.59
2019-02-05T11:08:03.965Z,42.57
2019-02-05T11:10:31.163Z,42.54
2019-02-05T11:12:58.502Z,42.47
2019-02-05T11:15:30.353Z,42.45
2019-02-05T11:17:57.552Z,42.44
2019-02-05T11:20:27.770Z,42.37
2019-02-05T11:22:55.234Z,42.89
2019-02-05T11:25:22.559Z,43.08
2019-02-05T11:27:49.856Z,42.72
2019-02-05T11:30:20.653Z,42.56
2019-02-05T11:32:48.943Z,42.43
2019-02-05T11:35:16.220Z,42.87
2019-02-05T11:37:43.475Z,42.82
2019-02-05T11:40:15.611Z,42.83
2019-02-05T11:42:44.428Z,42.76
2019-02-05T11:45:13.203Z,42.83
2019-02-05T11:47:40.554Z,42.90
2019-02-05T11:50:09.057Z,43.02
2019-02-05T11:52:36.508Z,43.13
2019-02-05T11:55:04.142Z,43.06
2019-02-05T11:57:31.703Z,42.85
2019-02-05T11:59:59.079Z,42.73
2019-02-05T12:02:26.308Z,42.79
2019-02-05T12:04:53.525Z,44.54
2019-02-05T12:07:20.894Z,45.03
2019-02-05T12:09:48.118Z,44.87
2019-02-05T12:12:15.402Z,44.11
2019-02-05T12:14:42.612Z,43.90
2019-02-05T12:17:10.328Z,43.85
2019-02-05T12:19:37.539Z,43.46
2019-02-05T12:22:04.878Z,43.68
2019-02-05T12:24:32.183Z,43.55
2019-02-05T12:26:59.670Z,43.28
2019-02-05T12:29:26.926Z,43.45
2019-02-05T12:31:54.131Z,43.25
2019-02-05T12:34:21.400Z,43.44
2019-02-05T12:36:48.616Z,43.08
2019-02-05T12:39:17.601Z,43.20
2019-02-05T12:41:44.875Z,42.91
2019-02-05T12:44:12.113Z,42.81
2019-02-05T12:46:39.601Z,42.72
2019-02-05T12:49:06.822Z,42.56
2019-02-05T12:51:34.031Z,42.60
2019-02-05T12:54:01.282Z,42.50
2019-02-05T12:56:28.945Z,42.43
2019-02-05T12:58:56.165Z,42.45
2019-02-05T13:01:23.380Z,42.53
2019-02-05T13:03:50.676Z,42.41
2019-02-05T13:06:19.056Z,42.41
2019-02-05T13:08:47.520Z,42.44
2019-02-05T13:11:14.688Z,42.32
2019-02-05T13:13:42.387Z,42.35
2019-02-05T13:16:09.667Z,42.25
2019-02-05T13:18:36.868Z,42.31
2019-02-05T13:21:04.066Z,42.18
2019-02-05T13:23:31.295Z,42.08
2019-02-05T13:25:58.516Z,42.05
2019-02-05T13:28:25.766Z,42.11
2019-02-05T13:30:53.006Z,42.08
2019-02-05T13:33:20.355Z,42.00
2019-02-05T13:35:47.570Z,41.95
2019-02-05T13:38:14.806Z,42.07
2019-02-05T13:40:42.039Z,41.93
2019-02-05T13:43:09.228Z,42.04
2019-02-05T13:45:36.414Z,42.13
2019-02-05T13:48:04.405Z,42.14
2019-02-05T13:50:33.481Z,42.14
2019-02-05T13:53:00.845Z,42.06
2019-02-05T13:55:37.601Z,42.09
2019-02-05T13:58:04.890Z,42.04
2019-02-05T14:00:39.994Z,42.07
2019-02-05T14:03:08.456Z,42.12
2019-02-05T14:05:35.896Z,42.28
2019-02-05T14:08:03.348Z,42.43
2019-02-05T14:10:31.169Z,42.49
2019-02-05T14:12:58.431Z,42.58
2019-02-05T14:15:27.548Z,42.63
2019-02-05T14:17:54.723Z,42.70
2019-02-05T14:20:22.430Z,42.71
2019-02-05T14:22:49.640Z,42.62
2019-02-05T14:25:16.918Z,42.57
2019-02-05T14:27:44.127Z,42.44
2019-02-05T14:30:15.501Z,42.34
2019-02-05T14:32:42.806Z,42.37
2019-02-05T14:35:10.009Z,42.35
2019-02-05T14:37:37.632Z,42.39
2019-02-05T14:40:07.312Z,42.36
2019-02-05T14:42:34.546Z,42.33
2019-02-05T14:45:01.775Z,42.36
2019-02-05T14:47:28.964Z,42.29
2019-02-05T14:49:56.288Z,42.30
2019-02-05T14:52:23.763Z,42.30
2019-02-05T14:54:51.949Z,42.24
2019-02-05T14:57:19.139Z,42.21
2019-02-05T14:59:46.348Z,42.08
2019-02-05T15:02:13.684Z,42.18
2019-02-05T15:04:40.912Z,42.18
2019-02-05T15:07:08.180Z,42.23
2019-02-05T15:09:35.634Z,42.17
2019-02-05T15:12:03.270Z,42.21
2019-02-05T15:14:30.606Z,42.22
2019-02-05T15:16:57.798Z,42.17
2019-02-05T15:19:24.972Z,42.22
2019-02-05T15:21:52.189Z,42.29
2019-02-05T15:24:19.424Z,42.35
2019-02-05T15:26:46.666Z,42.32
2019-02-05T15:29:14.265Z,42.33
2019-02-05T15:31:41.477Z,42.32
2019-02-05T15:34:23.467Z,42.42
2019-02-05T15:36:51.118Z,42.40
2019-02-05T15:39:18.499Z,42.40
2019-02-05T15:41:45.679Z,42.42
2019-02-05T15:44:13.170Z,42.43
2019-02-05T15:46:40.475Z,42.48
2019-02-05T15:49:07.661Z,42.48
2019-02-05T15:51:34.862Z,42.54
2019-02-05T15:54:02.097Z,42.57
2019-02-05T15:56:29.328Z,42.48
2019-02-05T15:58:56.614Z,42.58
2019-02-05T16:01:24.149Z,42.62
2019-02-05T16:03:51.485Z,42.71
2019-02-05T16:06:18.682Z,42.69
2019-02-05T16:08:45.889Z,42.73
2019-02-05T16:11:13.086Z,42.73
2019-02-05T16:13:40.235Z,42.77
2019-02-05T16:16:07.478Z,42.82
2019-02-05T16:18:34.693Z,42.82
2019-02-05T16:21:02.413Z,42.77
2019-02-05T16:23:29.661Z,42.77
2019-02-05T16:25:56.867Z,42.83
2019-02-05T16:28:24.131Z,42.84
2019-02-05T16:30:51.375Z,42.81
2019-02-05T16:33:18.689Z,42.83
2019-02-05T16:35:46.268Z,42.86
2019-02-05T16:38:14.177Z,42.93
2019-02-05T16:40:41.423Z,42.93
2019-02-05T16:43:08.706Z,42.89
2019-02-05T16:45:36.559Z,42.97
2019-02-05T16:48:05.822Z,42.94
2019-02-05T16:50:37.472Z,42.96
2019-02-05T16:53:12.606Z,42.92
2019-02-05T16:55:39.853Z,42.97
2019-02-05T16:58:07.084Z,42.97
2019-02-05T17:00:34.363Z,43.01
2019-02-05T17:03:01.630Z,42.99
2019-02-05T17:05:30.655Z,42.97
2019-02-05T17:07:57.961Z,42.93
2019-02-05T17:10:25.431Z,42.94
2019-02-05T17:12:52.618Z,43.04
2019-02-05T17:15:19.806Z,43.05
2019-02-05T17:17:47.003Z,43.08
2019-02-05T17:20:21.597Z,43.07
2019-02-05T17:22:48.854Z,43.05
2019-02-05T17:25:17.292Z,43.05
2019-02-05T17:27:45.052Z,43.36
2019-02-05T17:30:14.983Z,43.69
2019-02-05T17:32:42.443Z,43.56
2019-02-05T17:35:09.705Z,43.73
2019-02-05T17:37:37.331Z,43.75
2019-02-05T17:40:05.501Z,43.88
2019-02-05T17:42:32.750Z,44.15
2019-02-05T17:45:00.236Z,43.92
2019-02-05T17:47:27.512Z,43.91
2019-02-05T17:49:54.736Z,44.04
2019-02-05T17:52:22.450Z,44.02
2019-02-05T17:54:49.827Z,44.23
2019-02-05T17:57:17.082Z,44.45
2019-02-05T17:59:44.428Z,44.50
2019-02-05T18:02:12.576Z,44.58
2019-02-05T18:04:40.048Z,44.81
2019-02-05T18:07:07.400Z,44.90
2019-02-05T18:09:35.176Z,44.84
2019-02-05T18:12:02.475Z,45.16
2019-02-05T18:14:29.756Z,44.70
2019-02-05T18:16:56.989Z,44.75
2019-02-05T18:19:24.596Z,44.57
2019-02-05T18:21:51.813Z,44.52
2019-02-05T18:24:19.092Z,44.44
2019-02-05T18:26:46.386Z,44.52
2019-02-05T18:29:13.563Z,44.47
2019-02-05T18:31:40.825Z,44.52
2019-02-05T18:34:08.017Z,44.54
2019-02-05T18:36:35.692Z,44.46
2019-02-05T18:39:04.797Z,44.40
2019-02-05T18:41:31.970Z,44.35
2019-02-05T18:43:59.221Z,44.37
2019-02-05T18:46:26.563Z,44.32
2019-02-05T18:49:04.265Z,44.26
2019-02-05T18:51:22.960Z,44.22
2019-02-05T18:53:50.587Z,44.22
2019-02-05T18:56:17.802Z,44.15
2019-02-05T18:58:45.027Z,44.09
2019-02-05T19:01:12.238Z,44.08
2019-02-05T19:03:39.484Z,44.10
2019-02-05T19:06:06.676Z,44.10
2019-02-05T19:08:34.021Z,43.94
2019-02-05T19:11:01.216Z,43.88
2019-02-05T19:13:28.800Z,43.82
2019-02-05T19:15:56.019Z,43.77
2019-02-05T19:18:27.378Z,43.85
2019-02-05T19:20:54.714Z,44.19
2019-02-05T19:23:22.103Z,44.41
2019-02-05T19:26:11.994Z,44.42
2019-02-05T19:28:40.541Z,44.28
2019-02-05T19:31:30.289Z,44.12
2019-02-05T19:33:57.649Z,44.04
2019-02-05T19:36:25.497Z,44.06
2019-02-05T19:38:52.736Z,44.14
2019-02-05T19:41:19.987Z,44.21
2019-02-05T19:43:47.371Z,44.25
2019-02-05T19:46:37.382Z,45.25
2019-02-05T19:49:21.481Z,45.26
2019-02-05T19:51:45.174Z,44.62
2019-02-05T19:54:13.183Z,44.75
2019-02-05T19:56:40.438Z,44.56
2019-02-05T19:59:08.070Z,44.17
2019-02-05T20:01:35.471Z,44.34
2019-02-05T20:04:02.919Z,44.43
2019-02-05T20:06:31.635Z,44.40
2019-02-05T20:08:59.378Z,44.72
2019-02-05T20:11:26.748Z,45.59
2019-02-05T20:13:54.237Z,45.52
2019-02-05T20:16:25.413Z,45.56
2019-02-05T20:18:52.944Z,45.57
2019-02-05T20:21:20.321Z,45.61
2019-02-05T20:23:49.236Z,45.52
2019-02-05T20:26:17.093Z,45.87
2019-02-05T20:28:44.558Z,46.10
2019-02-05T20:31:12.105Z,46.15
2019-02-05T20:33:49.405Z,46.49
2019-02-05T20:36:08.906Z,46.50
2019-02-05T20:38:36.497Z,46.59
2019-02-05T20:41:03.869Z,46.51
2019-02-05T20:43:31.621Z,46.66
2019-02-05T20:45:58.872Z,46.63
2019-02-05T20:48:29.605Z,46.58
2019-02-05T20:50:55.973Z,46.75
2019-02-05T20:53:23.312Z,46.97
2019-02-05T20:55:50.646Z,47.01
2019-02-05T20:58:18.059Z,46.85
2019-02-05T21:00:45.262Z,47.05
2019-02-05T21:03:12.705Z,46.58
2019-02-05T21:05:40.330Z,46.81
2019-02-05T21:08:07.952Z,46.88
2019-02-05T21:10:36.382Z,46.89
2019-02-05T21:13:03.701Z,46.67
2019-02-05T21:15:31.250Z,46.44
2019-02-05T21:17:58.582Z,46.60
2019-02-05T21:20:29.284Z,46.44
2019-02-05T21:22:57.009Z,46.99
2019-02-05T21:25:24.783Z,47.07
2019-02-05T21:27:52.082Z,46.95
2019-02-05T21:30:19.679Z,46.73
2019-02-05T21:32:47.985Z,46.85
2019-02-05T21:35:15.495Z,46.85
2019-02-05T21:37:46.002Z,46.96
2019-02-05T21:40:16.628Z,47.79
2019-02-05T21:42:46.266Z,47.69
2019-02-05T21:45:19.900Z,47.70
2019-02-05T21:47:47.567Z,47.77
2019-02-05T21:50:17.704Z,47.71
2019-02-05T21:52:49.375Z,47.86
2019-02-05T21:55:17.299Z,47.82
2019-02-05T21:57:44.530Z,47.71
2019-02-05T22:00:17.424Z,48.07
2019-02-05T22:02:44.834Z,47.71
2019-02-05T22:05:12.084Z,47.92
2019-02-05T22:07:39.403Z,47.77
2019-02-05T22:10:06.717Z,47.79
2019-02-05T22:12:33.985Z,47.72
2019-02-05T22:15:01.296Z,47.71
2019-02-05T22:17:28.461Z,47.76
2019-02-05T22:19:55.724Z,47.79
2019-02-05T22:22:23.052Z,47.87
2019-02-05T22:24:50.290Z,47.90
2019-02-05T22:27:17.939Z,48.00
2019-02-05T22:29:45.162Z,48.05
2019-02-05T22:32:12.421Z,48.01
2019-02-05T22:34:39.711Z,48.00
2019-02-05T22:37:06.982Z,47.82
2019-02-05T22:39:34.704Z,48.02
2019-02-05T22:42:01.925Z,47.98
2019-02-05T22:44:29.246Z,48.02
2019-02-05T22:46:56.494Z,48.26
2019-02-05T22:49:23.892Z,48.29
2019-02-05T22:51:51.427Z,48.24
2019-02-05T22:54:18.648Z,48.36
2019-02-05T22:56:46.128Z,48.30
2019-02-05T22:59:13.583Z,48.42
2019-02-05T23:01:52.505Z,48.50
2019-02-05T23:04:31.649Z,48.43
2019-02-05T23:07:02.958Z,48.46
2019-02-05T23:10:25.289Z,48.06
2019-02-05T23:13:09.783Z,48.80
2019-02-05T23:15:42.415Z,48.74
2019-02-05T23:18:10.270Z,48.53
2019-02-05T23:20:37.617Z,48.52
2019-02-05T23:23:04.849Z,48.59
2019-02-05T23:25:32.038Z,48.89
2019-02-05T23:27:59.284Z,49.06
2019-02-05T23:30:27.771Z,48.89
2019-02-05T23:32:55.010Z,48.88
2019-02-05T23:35:22.222Z,49.01
2019-02-05T23:37:49.492Z,49.31
2019-02-05T23:40:16.717Z,48.71
2019-02-05T23:42:43.966Z,48.43
2019-02-05T23:45:11.684Z,48.40
2019-02-05T23:47:38.949Z,48.38
2019-02-05T23:50:08.222Z,48.27
2019-02-05T23:52:35.569Z,48.21
2019-02-05T23:55:03.243Z,48.17
2019-02-05T23:57:30.462Z,48.39
2019-02-05T23:59:57.603Z,48.53
